Řízení letového provozu České republiky
Letiste: LKLN Aktualizace: 20.01.2017 22:08:07  UTC
 METAR LKLN 20.01. 22:00 ...
METAR LKLN 202200Z AUTO 21002KT 1700 BR NCD M12/M13 Q1033=